Time;durP1;ratioP1;P1;durP2;ratioP2;P2;SDS_P1;SDS_P2;PMS_P1;PMS_P2;Temp;Humidity;BMP_temperature;BMP_pressure;BME280_temperature;BME280_humidity;BME280_pressure;Samples;Min_cycle;Max_cycle;Signal;HPM_P1;HPM_P2
2023/08/06 00:00:05;;;;;;;0.30;0.30;;;;;;;17.37;71.29;99830.41;5196211;28;20044;-88
2023/08/06 00:02:55;;;;;;;0.85;0.85;;;;;;;17.39;71.07;99828.50;5200419;28;20119;-88
2023/08/06 00:05:46;;;;;;;0.82;0.82;;;;;;;17.39;71.11;99828.50;5195558;28;20025;-87
2023/08/06 00:08:37;;;;;;;0.40;0.40;;;;;;;17.38;70.89;99826.81;5187631;28;20041;-87
2023/08/06 00:11:28;;;;;;;1.17;0.75;;;;;;;17.34;71.56;99822.66;5191312;28;20214;-89
2023/08/06 00:14:18;;;;;;;0.20;0.20;;;;;;;17.30;71.78;99817.59;5192013;28;20031;-87
2023/08/06 00:17:09;;;;;;;1.48;0.80;;;;;;;17.35;71.45;99825.22;5188767;28;20021;-87
2023/08/06 00:20:05;;;;;;;0.98;0.90;;;;;;;17.29;71.79;99817.66;5198933;28;20017;-88
2023/08/06 00:22:56;;;;;;;0.47;0.47;;;;;;;17.35;71.08;99808.44;5196356;28;20030;-89
2023/08/06 00:25:47;;;;;;;0.30;0.30;;;;;;;17.37;71.12;99814.50;5212208;28;20068;-87
2023/08/06 00:28:38;;;;;;;0.20;0.20;;;;;;;17.38;70.76;99811.72;5215410;28;20033;-87
2023/08/06 00:31:28;;;;;;;0.68;0.68;;;;;;;17.38;71.03;99813.53;5189352;28;20033;-88
2023/08/06 00:34:19;;;;;;;0.55;0.55;;;;;;;17.36;71.33;99812.78;5209478;28;20036;-87
2023/08/06 00:37:10;;;;;;;0.75;0.75;;;;;;;17.27;71.46;99812.47;5195940;28;20091;-87
2023/08/06 00:40:01;;;;;;;0.30;0.30;;;;;;;17.23;71.57;99813.63;5191793;28;20512;-88
2023/08/06 00:42:52;;;;;;;0.25;0.25;;;;;;;17.24;71.33;99818.00;5186542;28;20033;-86
2023/08/06 00:45:43;;;;;;;0.45;0.45;;;;;;;17.26;71.05;99820.56;5199443;28;20024;-87
2023/08/06 00:48:33;;;;;;;0.35;0.30;;;;;;;17.21;71.49;99812.91;5189172;28;20151;-87
2023/08/06 00:51:25;;;;;;;0.43;0.43;;;;;;;17.24;71.02;99818.00;5208620;28;20091;-87
2023/08/06 00:54:16;;;;;;;1.75;1.00;;;;;;;17.25;71.08;99818.84;5188524;28;20033;-88
2023/08/06 00:57:08;;;;;;;0.35;0.35;;;;;;;17.24;71.22;99823.28;5188783;28;20207;-89
2023/08/06 00:59:59;;;;;;;0.40;0.40;;;;;;;17.19;71.36;99820.13;5192837;28;20075;-89
2023/08/06 01:02:50;;;;;;;0.20;0.20;;;;;;;17.17;71.38;99816.72;5218636;28;20071;-87
2023/08/06 01:05:41;;;;;;;0.30;0.30;;;;;;;17.19;70.96;99814.81;5196891;28;20121;-88
2023/08/06 01:08:56;;;;;;;0.40;0.40;;;;;;;17.19;71.33;99819.28;5205243;28;20100;-87
2023/08/06 01:12:04;;;;;;;0.65;0.65;;;;;;;17.17;71.40;99814.06;5189859;28;20060;-89
2023/08/06 01:15:15;;;;;;;0.47;0.47;;;;;;;17.17;71.34;99816.72;5197626;28;20032;-89
2023/08/06 01:18:06;;;;;;;0.38;0.38;;;;;;;17.15;71.41;99813.31;5187766;28;20330;-88
2023/08/06 01:20:57;;;;;;;0.40;0.40;;;;;;;17.12;72.01;99811.75;5195584;28;20041;-87
2023/08/06 01:23:48;;;;;;;0.38;0.38;;;;;;;17.11;71.80;99817.16;5195636;28;20033;-88
2023/08/06 01:26:43;;;;;;;0.85;0.85;;;;;;;17.10;71.89;99810.16;5202268;28;20025;-87
2023/08/06 01:29:43;;;;;;;0.30;0.30;;;;;;;17.10;71.89;99816.31;5208518;28;20032;-89
2023/08/06 01:32:38;;;;;;;0.30;0.30;;;;;;;17.11;72.64;99806.56;5204475;28;20109;-88
2023/08/06 01:35:30;;;;;;;0.50;0.50;;;;;;;17.11;72.22;99817.16;5189575;28;20032;-88
2023/08/06 01:38:21;;;;;;;0.43;0.43;;;;;;;17.12;71.98;99809.09;5204750;28;20037;-87
2023/08/06 01:41:12;;;;;;;0.30;0.30;;;;;;;17.09;72.41;99814.63;5189652;28;20036;-89
2023/08/06 01:44:03;;;;;;;0.30;0.30;;;;;;;17.03;72.77;99803.59;5208256;28;20029;-89
2023/08/06 01:46:54;;;;;;;0.28;0.28;;;;;;;17.09;72.55;99803.16;5195244;28;20032;-88
2023/08/06 01:49:44;;;;;;;0.60;0.60;;;;;;;17.09;72.50;99792.56;5196191;28;20078;-89
2023/08/06 01:52:35;;;;;;;0.20;0.20;;;;;;;17.08;72.60;99790.84;5190191;28;20446;-88
2023/08/06 01:55:26;;;;;;;0.30;0.30;;;;;;;17.04;73.08;99789.38;5193597;28;20079;-87
2023/08/06 01:58:17;;;;;;;0.35;0.35;;;;;;;17.11;72.47;99790.66;5213367;28;20503;-87
2023/08/06 02:01:07;;;;;;;0.32;0.32;;;;;;;17.09;72.63;99776.66;5197975;28;20121;-88
2023/08/06 02:03:58;;;;;;;0.30;0.30;;;;;;;17.08;72.76;99786.41;5201829;28;20041;-87
2023/08/06 02:06:49;;;;;;;0.43;0.43;;;;;;;17.13;72.53;99786.94;5189606;28;20052;-88
2023/08/06 02:09:40;;;;;;;0.63;0.63;;;;;;;17.13;72.37;99783.44;5189764;28;20459;-89
2023/08/06 02:12:31;;;;;;;0.40;0.40;;;;;;;17.11;72.55;99785.34;5193582;28;20548;-88
2023/08/06 02:15:21;;;;;;;0.30;0.30;;;;;;;17.10;72.95;99783.66;5188096;28;20029;-88
2023/08/06 02:18:12;;;;;;;0.30;0.30;;;;;;;17.14;72.53;99783.34;5197011;28;20016;-87
2023/08/06 02:21:03;;;;;;;0.40;0.40;;;;;;;17.16;72.49;99777.91;5197820;28;20035;-89
2023/08/06 02:23:54;;;;;;;1.25;1.02;;;;;;;17.14;72.51;99775.38;5192007;28;20446;-88
2023/08/06 02:26:46;;;;;;;0.90;0.55;;;;;;;17.13;72.86;99772.84;5199810;28;20044;-88
2023/08/06 02:29:40;;;;;;;0.20;0.20;;;;;;;17.12;72.76;99765.84;5195650;28;20029;-88
2023/08/06 02:32:32;;;;;;;0.30;0.30;;;;;;;17.11;72.64;99764.97;5202400;28;20120;-89
2023/08/06 02:35:23;;;;;;;0.75;0.73;;;;;;;17.14;72.46;99758.66;5207945;28;20120;-87
2023/08/06 02:38:13;;;;;;;0.20;0.20;;;;;;;17.11;72.77;99754.38;5205242;28;20021;-87
2023/08/06 02:41:05;;;;;;;0.10;0.10;;;;;;;17.13;72.74;99749.00;5184401;28;20079;-87
2023/08/06 02:43:55;;;;;;;0.20;0.20;;;;;;;17.14;72.54;99748.88;5186460;28;20602;-89
2023/08/06 02:46:46;;;;;;;0.75;0.75;;;;;;;17.11;72.71;99745.59;5188535;28;20028;-88
2023/08/06 02:49:37;;;;;;;0.22;0.22;;;;;;;17.11;72.86;99746.44;5197771;28;20047;-91
2023/08/06 02:52:28;;;;;;;0.57;0.57;;;;;;;17.11;72.76;99737.66;5179372;28;20037;-88
2023/08/06 02:55:18;;;;;;;0.50;0.50;;;;;;;17.11;72.47;99743.78;5184482;28;20071;-89
2023/08/06 02:58:09;;;;;;;0.20;0.20;;;;;;;17.11;72.64;99745.59;5193483;28;20029;-88
2023/08/06 03:01:02;;;;;;;0.30;0.30;;;;;;;17.09;72.76;99743.06;5187837;28;20063;-88
2023/08/06 03:03:53;;;;;;;0.40;0.40;;;;;;;17.10;72.69;99741.25;5186789;28;20475;-87
2023/08/06 03:06:44;;;;;;;0.25;0.25;;;;;;;17.09;72.69;99739.53;5200051;28;20096;-89
2023/08/06 03:09:34;;;;;;;0.40;0.40;;;;;;;17.09;72.44;99736.91;5184932;28;20728;-87
2023/08/06 03:12:25;;;;;;;0.30;0.30;;;;;;;17.08;72.67;99743.16;5187206;28;20045;-87
2023/08/06 03:15:16;;;;;;;0.40;0.40;;;;;;;17.08;72.67;99729.91;5188797;28;20051;-89
2023/08/06 03:18:08;;;;;;;0.63;0.63;;;;;;;17.07;72.57;99725.56;5179211;28;20057;-87
2023/08/06 03:20:59;;;;;;;1.75;0.90;;;;;;;17.04;72.68;99723.13;5200113;28;20513;-87
2023/08/06 03:23:49;;;;;;;0.30;0.30;;;;;;;17.05;72.69;99725.66;5198635;28;20033;-87
2023/08/06 03:26:40;;;;;;;0.20;0.20;;;;;;;17.05;72.74;99724.84;5198998;28;20412;-86
2023/08/06 03:29:31;;;;;;;0.20;0.20;;;;;;;17.05;72.91;99722.19;5195197;28;20029;-87
2023/08/06 03:32:22;;;;;;;0.30;0.30;;;;;;;17.02;73.26;99725.03;5185033;28;20429;-87
2023/08/06 03:35:12;;;;;;;0.30;0.30;;;;;;;16.98;73.26;99722.59;5178371;28;20075;-87
2023/08/06 03:38:03;;;;;;;0.20;0.20;;;;;;;16.92;73.08;99723.00;5201991;28;20064;-87
2023/08/06 03:40:54;;;;;;;0.30;0.30;;;;;;;16.95;73.13;99722.81;5189121;28;20020;-87
2023/08/06 03:43:45;;;;;;;0.25;0.25;;;;;;;16.94;73.40;99720.28;5185705;28;20070;-87
2023/08/06 03:46:36;;;;;;;0.20;0.20;;;;;;;16.96;72.95;99713.94;5187763;28;20179;-88
2023/08/06 03:49:26;;;;;;;1.65;1.05;;;;;;;16.96;73.33;99721.88;5199174;28;20067;-88
2023/08/06 03:52:17;;;;;;;0.47;0.47;;;;;;;16.95;73.00;99728.13;5187729;28;20029;-86
2023/08/06 03:55:08;;;;;;;0.20;0.20;;;;;;;16.93;73.04;99719.44;5187824;28;20053;-88
2023/08/06 03:57:59;;;;;;;0.32;0.32;;;;;;;16.93;73.06;99724.72;5192416;28;20041;-87
2023/08/06 04:00:57;;;;;;;0.20;0.20;;;;;;;16.94;73.08;99729.06;5197742;28;20021;-87
2023/08/06 04:03:48;;;;;;;0.20;0.20;;;;;;;16.85;73.79;99724.38;5184521;28;20502;-87
2023/08/06 04:06:39;;;;;;;0.20;0.20;;;;;;;16.89;73.26;99725.00;5189458;28;20040;-87
2023/08/06 04:09:30;;;;;;;0.40;0.35;;;;;;;16.87;73.46;99726.91;5218754;28;20095;-87
2023/08/06 04:12:21;;;;;;;0.20;0.20;;;;;;;16.85;73.15;99727.03;5203193;28;20041;-89
2023/08/06 04:15:11;;;;;;;0.40;0.40;;;;;;;16.83;73.51;99729.78;5187442;28;20021;-87
2023/08/06 04:18:02;;;;;;;0.30;0.30;;;;;;;16.80;73.69;99727.34;5187173;28;20025;-89
2023/08/06 04:20:55;;;;;;;0.52;0.52;;;;;;;16.78;74.24;99725.75;5194999;28;20605;-88
2023/08/06 04:23:45;;;;;;;0.50;0.50;;;;;;;16.81;73.57;99725.56;5180476;28;20120;-89
2023/08/06 04:26:37;;;;;;;0.30;0.30;;;;;;;16.80;73.89;99721.22;5185106;28;20561;-88
2023/08/06 04:29:27;;;;;;;0.20;0.20;;;;;;;16.78;73.99;99723.94;5186506;28;20492;-86
2023/08/06 04:32:19;;;;;;;0.20;0.20;;;;;;;16.80;73.59;99719.41;5198817;28;20040;-88
2023/08/06 04:35:10;;;;;;;0.20;0.20;;;;;;;16.75;74.35;99724.19;5194910;28;20017;-86
2023/08/06 04:38:00;;;;;;;0.20;0.20;;;;;;;16.76;74.18;99725.88;5201604;28;20033;-88
2023/08/06 04:40:52;;;;;;;0.32;0.32;;;;;;;16.82;73.86;99725.44;5183711;28;20036;-87
2023/08/06 04:43:42;;;;;;;0.20;0.20;;;;;;;16.78;74.37;99723.13;5196873;28;20125;-87
2023/08/06 04:46:33;;;;;;;0.28;0.28;;;;;;;16.79;73.87;99727.47;5191944;28;20034;-86
2023/08/06 04:49:25;;;;;;;0.30;0.30;;;;;;;16.82;73.94;99732.53;5189161;28;20024;-86
2023/08/06 04:52:15;;;;;;;0.30;0.30;;;;;;;16.78;74.66;99731.06;5195774;28;20033;-86
2023/08/06 04:55:06;;;;;;;0.40;0.40;;;;;;;16.81;74.11;99729.03;5198832;28;20507;-86
2023/08/06 04:57:57;;;;;;;0.10;0.10;;;;;;;16.81;74.15;99730.84;5198249;28;20035;-87
2023/08/06 05:00:48;;;;;;;0.20;0.20;;;;;;;16.82;74.69;99737.81;5200550;28;20052;-88
2023/08/06 05:03:39;;;;;;;0.30;0.30;;;;;;;16.83;74.54;99739.53;5192902;28;20094;-88
2023/08/06 05:06:29;;;;;;;0.22;0.22;;;;;;;16.86;75.19;99741.13;5198984;28;20148;-87
2023/08/06 05:09:20;;;;;;;0.40;0.40;;;;;;;16.87;74.63;99734.84;5185858;28;20037;-87
2023/08/06 05:12:11;;;;;;;0.20;0.20;;;;;;;16.90;74.64;99737.31;5184653;28;20025;-87
2023/08/06 05:15:02;;;;;;;0.20;0.20;;;;;;;16.85;75.87;99737.63;5182395;28;20337;-89
2023/08/06 05:17:53;;;;;;;0.20;0.20;;;;;;;16.88;75.04;99737.44;5199128;28;20116;-87
2023/08/06 05:20:44;;;;;;;1.20;0.45;;;;;;;16.91;74.51;99742.50;5214617;28;20036;-87
2023/08/06 05:23:34;;;;;;;0.60;0.60;;;;;;;16.89;75.00;99747.06;5190286;28;20123;-87
2023/08/06 05:26:25;;;;;;;0.30;0.30;;;;;;;16.91;74.93;99747.78;5199836;28;20091;-90
2023/08/06 05:29:16;;;;;;;0.20;0.20;;;;;;;16.91;74.90;99745.13;5205974;28;20056;-87
2023/08/06 05:32:07;;;;;;;0.57;0.57;;;;;;;16.92;75.30;99754.78;5199892;28;20032;-87
2023/08/06 05:34:58;;;;;;;1.02;0.52;;;;;;;16.91;75.10;99747.78;5197155;28;20552;-86
2023/08/06 05:37:50;;;;;;;0.47;0.47;;;;;;;16.89;75.47;99746.19;5186667;28;20060;-87
2023/08/06 05:40:41;;;;;;;0.20;0.20;;;;;;;16.90;75.72;99750.56;5205235;28;20107;-87
2023/08/06 05:43:32;;;;;;;0.32;0.32;;;;;;;16.95;75.49;99754.63;5195613;28;20124;-87
2023/08/06 05:46:23;;;;;;;0.20;0.20;;;;;;;16.93;75.99;99761.81;5221289;28;20021;-88
2023/08/06 05:49:14;;;;;;;0.30;0.30;;;;;;;16.97;75.35;99760.66;5214793;28;20028;-87
2023/08/06 05:52:06;;;;;;;0.90;0.40;;;;;;;16.95;76.03;99765.22;5200401;28;20567;-88
2023/08/06 05:54:57;;;;;;;0.35;0.35;;;;;;;16.97;75.83;99767.75;5212317;28;20348;-89
2023/08/06 05:57:47;;;;;;;0.20;0.20;;;;;;;16.98;76.01;99767.63;5225139;28;20033;-87
2023/08/06 06:00:38;;;;;;;0.30;0.30;;;;;;;17.03;76.05;99766.47;5186885;28;20546;-88
2023/08/06 06:03:29;;;;;;;1.08;0.52;;;;;;;17.06;75.72;99766.28;5199374;28;20033;-88
2023/08/06 06:06:20;;;;;;;0.20;0.20;;;;;;;17.05;76.49;99765.41;5188714;28;20019;-87
2023/08/06 06:09:11;;;;;;;0.43;0.43;;;;;;;17.09;75.83;99766.91;5195230;28;20032;-87
2023/08/06 06:12:02;;;;;;;0.30;0.30;;;;;;;17.09;76.76;99766.03;5188156;28;20040;-87
2023/08/06 06:14:52;;;;;;;14.48;1.52;;;;;;;17.13;76.05;99773.69;5187444;28;20435;-87
2023/08/06 06:17:43;;;;;;;0.60;0.60;;;;;;;17.20;76.40;99774.13;5187980;28;20033;-87
2023/08/06 06:20:34;;;;;;;0.38;0.38;;;;;;;17.22;76.26;99777.50;5183111;28;20553;-87
2023/08/06 06:23:25;;;;;;;0.20;0.20;;;;;;;17.24;76.04;99783.53;5197586;28;20044;-87
2023/08/06 06:26:15;;;;;;;0.88;0.70;;;;;;;17.25;76.12;99787.03;5185277;28;20100;-87
2023/08/06 06:29:06;;;;;;;3.20;1.23;;;;;;;17.33;75.75;99784.69;5192083;28;20037;-87
2023/08/06 06:31:57;;;;;;;0.30;0.30;;;;;;;17.31;76.50;99790.09;5188229;28;20037;-87
2023/08/06 06:34:48;;;;;;;0.30;0.30;;;;;;;17.39;76.40;99788.72;5176396;28;20035;-87
2023/08/06 06:37:39;;;;;;;0.30;0.30;;;;;;;17.39;75.89;99796.69;5191243;28;20035;-87
2023/08/06 06:40:29;;;;;;;0.50;0.50;;;;;;;17.41;76.29;99802.69;5203472;28;20025;-87
2023/08/06 06:43:20;;;;;;;0.20;0.20;;;;;;;17.46;75.65;99798.78;5201071;28;20037;-87
2023/08/06 06:46:11;;;;;;;0.30;0.30;;;;;;;17.46;76.09;99805.91;5217438;28;20040;-89
2023/08/06 06:49:02;;;;;;;0.20;0.20;;;;;;;17.48;76.16;99801.31;5222568;28;20077;-87
2023/08/06 06:51:52;;;;;;;0.20;0.20;;;;;;;17.49;76.18;99799.53;5221121;28;20047;-87
2023/08/06 06:54:43;;;;;;;0.20;0.20;;;;;;;17.49;76.15;99803.00;5235340;28;20025;-88
2023/08/06 06:57:34;;;;;;;0.20;0.20;;;;;;;17.49;76.16;99800.34;5224269;28;20049;-88
2023/08/06 07:00:25;;;;;;;0.30;0.30;;;;;;;17.54;75.93;99808.84;5221370;28;20036;-88
2023/08/06 07:03:15;;;;;;;0.20;0.20;;;;;;;17.57;75.55;99808.63;5211781;28;20014;-88
2023/08/06 07:06:07;;;;;;;0.30;0.30;;;;;;;17.57;75.92;99811.28;5205757;28;20013;-89
2023/08/06 07:08:57;;;;;;;0.30;0.30;;;;;;;17.54;76.61;99813.28;5226963;28;20360;-89
2023/08/06 07:11:48;;;;;;;0.20;0.20;;;;;;;17.54;76.38;99808.84;5207795;28;20009;-89
2023/08/06 07:14:39;;;;;;;0.35;0.35;;;;;;;17.44;76.92;99816.59;5206785;28;20026;-89
2023/08/06 07:17:30;;;;;;;0.25;0.25;;;;;;;17.50;76.28;99815.31;5210796;28;20025;-89
2023/08/06 07:20:21;;;;;;;0.20;0.20;;;;;;;17.51;76.05;99809.06;5226990;28;20229;-87
2023/08/06 07:23:11;;;;;;;0.40;0.40;;;;;;;17.46;77.42;99816.50;5206616;28;20029;-87
2023/08/06 07:26:02;;;;;;;0.10;0.10;;;;;;;17.47;76.72;99812.91;5195136;28;20536;-88
2023/08/06 07:28:53;;;;;;;0.60;0.60;;;;;;;17.51;76.03;99822.31;5192158;28;20039;-88
2023/08/06 07:31:44;;;;;;;0.30;0.30;;;;;;;17.48;76.72;99821.69;5179984;28;20040;-88
2023/08/06 07:34:34;;;;;;;0.22;0.22;;;;;;;17.51;77.47;99824.13;5198243;28;20032;-88
2023/08/06 07:37:27;;;;;;;0.30;0.30;;;;;;;17.52;76.86;99821.38;5201183;28;20186;-87
2023/08/06 07:40:18;;;;;;;0.30;0.25;;;;;;;17.55;76.47;99836.22;5191001;28;20030;-88
2023/08/06 07:43:09;;;;;;;1.17;0.95;;;;;;;17.52;77.14;99826.69;5198811;28;20254;-90
2023/08/06 07:46:00;;;;;;;0.20;0.20;;;;;;;17.58;77.02;99834.19;5185498;28;20031;-89
2023/08/06 07:48:51;;;;;;;0.30;0.30;;;;;;;17.58;77.44;99838.66;5188057;28;20033;-88
2023/08/06 07:51:42;;;;;;;0.40;0.40;;;;;;;17.64;77.08;99842.69;5198799;28;20025;-90
2023/08/06 07:54:33;;;;;;;0.52;0.47;;;;;;;17.68;78.30;99842.38;5208216;28;20535;-87
2023/08/06 07:57:24;;;;;;;0.30;0.30;;;;;;;17.72;78.36;99840.34;5183945;28;20254;-89
2023/08/06 08:00:14;;;;;;;0.60;0.60;;;;;;;17.65;78.66;99839.91;5191320;28;20532;-90
2023/08/06 08:03:05;;;;;;;0.40;0.40;;;;;;;17.44;79.41;99839.63;5181986;28;20278;-89
2023/08/06 08:05:57;;;;;;;0.20;0.20;;;;;;;17.31;80.10;99834.31;5188971;28;20021;-88
2023/08/06 08:08:48;;;;;;;0.30;0.30;;;;;;;17.50;78.81;99843.66;5184158;28;20116;-89
2023/08/06 08:11:39;;;;;;;2.40;0.43;;;;;;;17.66;78.09;99843.41;5193977;28;20040;-90
2023/08/06 08:14:35;;;;;;;0.30;0.30;;;;;;;17.58;80.40;99852.75;5186951;28;20324;-88
2023/08/06 08:17:26;;;;;;;0.25;0.25;;;;;;;17.73;79.06;99849.97;5209075;28;20578;-88
2023/08/06 08:20:17;;;;;;;0.98;0.40;;;;;;;17.76;79.02;99855.94;5185141;28;20404;-88
2023/08/06 08:23:07;;;;;;;0.52;0.52;;;;;;;17.82;79.24;99857.28;5187918;28;20555;-88
2023/08/06 08:25:58;;;;;;;0.30;0.30;;;;;;;17.93;78.33;99856.53;5188912;28;20025;-88
2023/08/06 08:28:49;;;;;;;0.30;0.30;;;;;;;18.08;77.49;99868.72;5192900;28;20055;-88
2023/08/06 08:31:40;;;;;;;0.52;0.52;;;;;;;17.94;78.54;99864.38;5181330;28;20139;-87
2023/08/06 08:34:31;;;;;;;0.20;0.20;;;;;;;18.08;77.64;99857.25;5193068;28;20082;-87
2023/08/06 08:37:23;;;;;;;0.30;0.30;;;;;;;17.88;77.77;99862.16;5194682;28;20037;-87
2023/08/06 08:40:14;;;;;;;0.40;0.40;;;;;;;18.04;77.68;99856.63;5194921;28;20026;-87
2023/08/06 08:43:05;;;;;;;0.30;0.30;;;;;;;18.03;77.51;99870.00;5194883;28;20062;-87
2023/08/06 08:46:00;;;;;;;0.73;0.60;;;;;;;18.15;77.82;99877.06;5207046;28;20178;-87
2023/08/06 08:48:50;;;;;;;0.25;0.25;;;;;;;18.09;77.53;99870.44;5201553;28;20562;-87
2023/08/06 08:51:44;;;;;;;0.47;0.47;;;;;;;18.06;78.03;99875.94;5197010;28;20636;-88
2023/08/06 08:54:37;;;;;;;0.40;0.40;;;;;;;18.15;78.35;99882.38;5198197;28;20028;-87
2023/08/06 08:57:28;;;;;;;0.40;0.35;;;;;;;18.06;79.61;99883.03;5197795;28;20048;-88
2023/08/06 09:00:19;;;;;;;0.30;0.30;;;;;;;18.15;79.79;99886.84;5196163;28;20036;-87
2023/08/06 09:03:10;;;;;;;0.20;0.20;;;;;;;18.13;80.20;99889.63;5196395;28;20021;-88
2023/08/06 09:06:02;;;;;;;0.28;0.28;;;;;;;18.17;79.96;99898.22;5194597;28;20056;-88
2023/08/06 09:09:04;;;;;;;0.30;0.30;;;;;;;18.36;78.59;99903.88;5196790;28;20021;-87
2023/08/06 09:12:05;;;;;;;0.30;0.30;;;;;;;18.04;80.29;99911.53;5183037;28;20112;-87
2023/08/06 09:14:56;;;;;;;0.20;0.20;;;;;;;18.31;79.15;99919.31;5209462;28;20032;-87
2023/08/06 09:17:47;;;;;;;0.22;0.22;;;;;;;18.31;77.15;99929.06;5180309;28;20133;-87
2023/08/06 09:20:39;;;;;;;0.20;0.20;;;;;;;18.27;78.58;99928.44;5194879;28;20033;-88
2023/08/06 09:23:31;;;;;;;0.30;0.30;;;;;;;18.23;79.25;99943.75;5191811;28;20048;-88
2023/08/06 09:26:24;;;;;;;0.20;0.20;;;;;;;17.81;81.08;99945.78;5188600;28;20052;-86
2023/08/06 09:29:15;;;;;;;0.20;0.20;;;;;;;18.22;78.93;99949.16;5202901;28;20092;-87
2023/08/06 09:32:06;;;;;;;0.20;0.20;;;;;;;18.19;78.63;99947.59;5195329;28;20120;-87
2023/08/06 09:34:57;;;;;;;0.40;0.40;;;;;;;18.06;78.84;99957.38;5195602;28;20105;-87
2023/08/06 09:37:48;;;;;;;0.20;0.20;;;;;;;17.92;80.03;99955.69;5195330;28;20033;-87
2023/08/06 09:40:40;;;;;;;0.20;0.20;;;;;;;17.73;80.57;99958.75;5199589;28;20368;-88
2023/08/06 09:43:39;;;;;;;0.20;0.20;;;;;;;17.68;80.75;99956.44;5184166;28;20135;-88
2023/08/06 09:46:33;;;;;;;0.20;0.20;;;;;;;17.50;81.32;99961.19;5185324;28;20043;-88
2023/08/06 09:49:28;;;;;;;0.30;0.30;;;;;;;17.51;80.73;99970.84;5186441;28;20025;-88
2023/08/06 09:52:19;;;;;;;0.20;0.20;;;;;;;17.53;80.33;99976.91;5190439;28;20062;-87
2023/08/06 09:55:11;;;;;;;0.20;0.20;;;;;;;17.34;81.68;99982.59;5180328;28;20026;-87
2023/08/06 09:58:03;;;;;;;0.20;0.20;;;;;;;17.25;81.98;99986.69;5194457;28;20229;-87
2023/08/06 10:00:54;;;;;;;0.22;0.22;;;;;;;17.42;80.53;99990.03;5183330;28;20470;-89
2023/08/06 10:03:47;;;;;;;0.20;0.20;;;;;;;17.21;81.99;99987.88;5186699;28;20124;-89
2023/08/06 10:06:38;;;;;;;0.20;0.20;;;;;;;17.14;81.28;100005.13;5203097;28;20108;-86
2023/08/06 10:09:29;;;;;;;0.30;0.30;;;;;;;16.60;82.66;100003.28;5192236;28;20128;-86
2023/08/06 10:12:21;;;;;;;0.52;0.52;;;;;;;16.68;83.29;100006.31;5198124;28;20505;-87
2023/08/06 10:15:19;;;;;;;0.20;0.20;;;;;;;16.95;81.22;100010.78;5192876;28;20402;-86
2023/08/06 10:18:11;;;;;;;0.20;0.20;;;;;;;16.61;82.72;100024.38;5192930;28;20045;-86
2023/08/06 10:21:02;;;;;;;0.20;0.20;;;;;;;16.31;83.26;100024.50;5207484;28;20393;-86
2023/08/06 10:23:54;;;;;;;0.20;0.20;;;;;;;16.59;82.17;100026.25;5220439;28;20032;-86
2023/08/06 10:26:45;;;;;;;0.40;0.40;;;;;;;16.73;81.07;100027.19;5191065;28;20052;-86
2023/08/06 10:29:37;;;;;;;0.20;0.20;;;;;;;16.31;84.19;100022.72;5192056;28;20055;-86
2023/08/06 10:32:49;;;;;;;0.20;0.20;;;;;;;16.45;82.95;100037.72;5183753;28;20199;-88
2023/08/06 10:35:50;;;;;;;0.30;0.30;;;;;;;16.25;83.63;100036.31;5206954;28;20542;-87
2023/08/06 10:38:46;;;;;;;0.30;0.30;;;;;;;16.05;83.60;100046.34;5182194;28;20029;-87
2023/08/06 10:41:37;;;;;;;0.30;0.30;;;;;;;16.17;83.19;100044.75;5192992;28;20531;-87
2023/08/06 10:44:28;;;;;;;0.30;0.30;;;;;;;16.32;82.55;100042.91;5188575;28;20044;-88
2023/08/06 10:47:28;;;;;;;0.20;0.20;;;;;;;16.41;82.16;100052.09;5197652;28;20025;-88
2023/08/06 10:50:20;;;;;;;0.30;0.30;;;;;;;16.41;81.98;100053.88;5198338;28;20036;-87
2023/08/06 10:53:12;;;;;;;0.85;0.85;;;;;;;16.47;81.46;100064.13;5201057;28;20033;-86
2023/08/06 10:56:13;;;;;;;1.20;0.77;;;;;;;16.35;83.01;100069.22;5183362;28;20055;-85
2023/08/06 10:59:04;;;;;;;0.90;0.75;;;;;;;16.31;82.77;100073.00;5197393;28;20033;-87
2023/08/06 11:01:54;;;;;;;0.57;0.57;;;;;;;16.45;82.27;100074.78;5181679;28;20123;-88
2023/08/06 11:04:45;;;;;;;0.30;0.30;;;;;;;16.49;82.79;100081.59;5183087;28;20146;-88
2023/08/06 11:07:37;;;;;;;0.32;0.32;;;;;;;16.53;82.32;100080.44;5194470;28;20047;-88
2023/08/06 11:10:28;;;;;;;0.40;0.40;;;;;;;16.46;82.75;100083.59;5197383;28;20040;-88
2023/08/06 11:13:19;;;;;;;0.20;0.20;;;;;;;16.29;81.99;100077.53;5192218;28;20025;-88
2023/08/06 11:16:10;;;;;;;0.25;0.25;;;;;;;16.27;82.50;100087.38;5207238;28;20013;-89
2023/08/06 11:19:01;;;;;;;0.47;0.47;;;;;;;16.48;81.28;100084.34;5192476;28;20032;-90
2023/08/06 11:21:52;;;;;;;0.60;0.60;;;;;;;16.43;81.68;100082.00;5194826;28;20029;-88
2023/08/06 11:24:43;;;;;;;0.40;0.40;;;;;;;16.48;82.16;100087.00;5202090;28;20021;-89
2023/08/06 11:27:34;;;;;;;0.30;0.30;;;;;;;16.53;82.53;100083.09;5191720;28;20095;-88
2023/08/06 11:30:26;;;;;;;0.35;0.35;;;;;;;16.74;81.02;100084.50;5189177;28;21021;-89
2023/08/06 11:33:22;;;;;;;0.43;0.40;;;;;;;16.61;82.07;100092.41;5203627;28;20025;-88
2023/08/06 11:36:13;;;;;;;0.65;0.65;;;;;;;16.55;82.86;100090.97;5189300;28;20020;-89
2023/08/06 11:39:05;;;;;;;0.40;0.40;;;;;;;16.66;82.33;100085.84;5234403;28;20076;-86
2023/08/06 11:41:56;;;;;;;1.50;0.70;;;;;;;16.64;83.21;100087.75;5185417;28;20032;-87
2023/08/06 11:44:47;;;;;;;0.30;0.30;;;;;;;16.65;82.68;100107.97;5199756;28;20306;-87
2023/08/06 11:47:40;;;;;;;2.63;0.88;;;;;;;16.71;83.42;100103.25;5187528;28;20029;-88
2023/08/06 11:50:33;;;;;;;5.13;0.80;;;;;;;16.72;84.36;100102.31;5202297;28;20032;-87
2023/08/06 11:53:28;;;;;;;0.30;0.30;;;;;;;16.95;82.59;100099.09;5190809;28;20043;-88
2023/08/06 11:56:19;;;;;;;1.55;0.60;;;;;;;17.02;83.08;100098.69;5184294;28;20053;-88
2023/08/06 11:59:10;;;;;;;0.20;0.20;;;;;;;17.01;82.40;100103.16;5185917;28;20503;-89
2023/08/06 12:02:07;;;;;;;0.20;0.20;;;;;;;17.13;81.66;100109.47;5188408;28;20726;-88
2023/08/06 12:05:10;;;;;;;0.57;0.57;;;;;;;17.17;80.99;100112.75;5188522;28;20023;-89
2023/08/06 12:08:03;;;;;;;0.43;0.43;;;;;;;17.18;81.07;100109.16;5191655;28;20032;-88
2023/08/06 12:10:53;;;;;;;0.25;0.25;;;;;;;17.12;79.35;100119.19;5182736;28;20092;-88
2023/08/06 12:13:44;;;;;;;0.30;0.30;;;;;;;17.17;78.93;100118.91;5189231;28;20028;-88
2023/08/06 12:16:36;;;;;;;0.40;0.40;;;;;;;17.17;78.08;100121.53;5186817;28;20333;-87
2023/08/06 12:19:26;;;;;;;0.20;0.20;;;;;;;17.34;77.66;100124.91;5192351;28;20109;-88
2023/08/06 12:22:18;;;;;;;0.22;0.22;;;;;;;17.33;77.02;100125.84;5208693;28;20036;-88
2023/08/06 12:25:12;;;;;;;0.30;0.30;;;;;;;17.49;76.67;100129.22;5193397;28;20112;-89
2023/08/06 12:28:03;;;;;;;0.30;0.30;;;;;;;17.20;77.46;100128.44;5195479;28;20416;-88
2023/08/06 12:30:56;;;;;;;0.20;0.20;;;;;;;17.33;77.23;100147.06;5192919;28;20024;-89
2023/08/06 12:33:47;;;;;;;0.20;0.20;;;;;;;17.13;76.94;100138.63;5191850;28;20420;-88
2023/08/06 12:36:38;;;;;;;0.20;0.20;;;;;;;17.08;77.51;100141.56;5197176;28;20041;-88
2023/08/06 12:39:28;;;;;;;0.20;0.20;;;;;;;16.82;76.28;100143.16;5198337;28;20033;-87
2023/08/06 12:42:19;;;;;;;0.20;0.20;;;;;;;17.20;77.13;100139.91;5208249;28;20040;-87
2023/08/06 12:45:10;;;;;;;0.40;0.40;;;;;;;17.39;76.89;100149.34;5192943;28;20068;-88
2023/08/06 12:48:01;;;;;;;0.40;0.40;;;;;;;17.38;77.38;100152.94;5195445;28;20237;-87
2023/08/06 12:50:52;;;;;;;1.45;0.50;;;;;;;17.38;77.84;100151.13;5194751;28;20103;-87
2023/08/06 12:53:43;;;;;;;0.30;0.30;;;;;;;17.19;77.66;100162.06;5194266;28;20094;-88
2023/08/06 12:56:34;;;;;;;0.20;0.20;;;;;;;17.37;76.64;100157.38;5198621;28;20025;-88
2023/08/06 12:59:25;;;;;;;2.85;1.27;;;;;;;17.15;77.11;100163.19;5202217;28;20044;-87
2023/08/06 13:02:15;;;;;;;0.30;0.30;;;;;;;17.49;76.74;100169.00;5196963;28;20072;-86
2023/08/06 13:05:06;;;;;;;0.30;0.30;;;;;;;17.36;77.23;100166.28;5204802;28;20501;-87
2023/08/06 13:07:57;;;;;;;0.70;0.70;;;;;;;17.35;76.79;100169.03;5189123;28;20025;-87
2023/08/06 13:10:48;;;;;;;0.30;0.30;;;;;;;17.35;76.95;100179.66;5211907;28;20064;-87
2023/08/06 13:13:39;;;;;;;0.60;0.60;;;;;;;17.36;78.05;100170.75;5198957;28;20370;-87
2023/08/06 13:16:30;;;;;;;0.40;0.40;;;;;;;17.39;77.69;100175.88;5194826;28;20035;-88
2023/08/06 13:19:20;;;;;;;0.70;0.70;;;;;;;17.39;78.53;100178.50;5196202;28;20043;-87
2023/08/06 13:22:11;;;;;;;1.63;1.40;;;;;;;17.29;79.11;100187.06;5200867;28;20029;-87
2023/08/06 13:25:02;;;;;;;0.55;0.55;;;;;;;17.41;79.58;100180.09;5204642;28;20520;-86